Monday, June 18, 2018, 8:52 PM EDT
Back to Local

KMMU, Morristown Municipal

Location: Morristown, NJ, United States Lat: 40.8
Local Time: 8:52 PM EDT ( 0:52 GMT) Lon: -74.417
Time Zone: US/Eastern Elev: 187 ft

Show me the last for .
Show Decoded

2018-06-18 20:27 METAR KMMU 190027Z 25010G22KT 7SM -TSRA FEW014 SCT031 BKN060 25/23 A2983 RMK TS
                 SE MOV SE LTGIC =
2018-06-18 20:10 METAR KMMU 190010Z 30020G39KT 1SM TS OVC008 25/23 A2984 RMK TS NW MOV SE =
2018-06-18 19:50 METAR KMMU 182350Z 25011KT 7SM TS SCT050 BKN250 31/24 A2979 RMK TS NW MOV SE =
2018-06-18 19:45 METAR KMMU 182345Z 24012KT 10SM SCT050 BKN250 31/23 A2979 =
2018-06-18 18:45 METAR KMMU 182245Z 25008G18KT 10SM FEW050 BKN250 33/24 A2982 =
2018-06-18 17:45 METAR KMMU 182145Z 25008G18KT 10SM FEW050 BKN250 33/24 A2982 =
2018-06-18 16:45 METAR KMMU 182045Z 25012G19KT 10SM SCT047 33/23 A2985 =
2018-06-18 15:50 METAR KMMU 181950Z 24011G19KT 10SM SCT044 BKN250 33/23 A2986 =
2018-06-18 15:40 METAR KMMU 181940Z 24011G19KT 10SM SCT044 BKN250 33/23 A2986 =
2018-06-18 14:50 METAR KMMU 181850Z 24011G19KT 10SM SCT044 BKN250 34/23 A2990 =
2018-06-18 13:45 METAR KMMU 181745Z 25012G17KT 10SM FEW055 33/23 A2993 =
2018-06-18 12:45 METAR KMMU 181645Z 25011G17KT 10SM FEW060 BKN070 31/22 A2996 =
2018-06-18 11:45 METAR KMMU 181545Z 25006G17KT 10SM FEW060 30/22 A2997 =
2018-06-18 10:55 METAR KMMU 181455Z 23010G15KT 10SM SKC 29/21 A2999 =
2018-06-18 09:45 METAR KMMU 181345Z 21004KT 10SM SCT250 28/21 A3000 =
2018-06-18 08:57 METAR KMMU 181257Z 21006KT 10SM BKN250 26/20 A3002 =
2018-06-18 07:45 METAR KMMU 181145Z 23006KT 10SM BKN250 23/19 A3004 =
2018-06-18 06:45 METAR KMMU 181045Z 16003KT 10SM BKN250 21/18 A3005 =
2018-06-18 06:35 METAR KMMU 181035Z AUTO 18003KT 10SM SCT075 20/18 A3004 RMK AO2 =
2018-06-18 06:15 METAR KMMU 181015Z AUTO 00000KT 10SM CLR 19/17 A3005 RMK AO2 =
2018-06-18 05:55 METAR KMMU 180955Z AUTO 00000KT 10SM CLR 19/17 A3005 RMK AO2 =
2018-06-18 05:35 METAR KMMU 180935Z AUTO 17004KT 10SM CLR 18/17 A3005 RMK AO2 =
2018-06-18 05:15 METAR KMMU 180915Z AUTO 00000KT 10SM CLR 18/16 A3005 RMK AO2 =
2018-06-18 04:55 METAR KMMU 180855Z AUTO 17003KT 10SM CLR 18/16 A3005 RMK AO2 =
2018-06-18 04:35 METAR KMMU 180835Z AUTO 00000KT 10SM CLR 19/17 A3005 RMK AO2 =
2018-06-18 04:15 METAR KMMU 180815Z AUTO 00000KT 10SM CLR 19/17 A3005 RMK AO2 =
2018-06-18 03:55 METAR KMMU 180755Z AUTO 16003KT 10SM CLR 19/17 A3005 RMK AO2 =
2018-06-18 03:35 METAR KMMU 180735Z AUTO 00000KT 10SM CLR 17/16 A3005 RMK AO2 =
2018-06-18 03:15 METAR KMMU 180715Z AUTO 00000KT 10SM CLR 17/16 A3006 RMK AO2 =
2018-06-18 02:55 METAR KMMU 180655Z AUTO 00000KT 10SM CLR 18/16 A3006 RMK AO2 =
2018-06-18 02:35 METAR KMMU 180635Z AUTO 00000KT 10SM CLR 18/16 A3007 RMK AO2 =
2018-06-18 02:15 METAR KMMU 180615Z AUTO 00000KT 10SM CLR 18/16 A3007 RMK AO2 =
2018-06-18 01:55 METAR KMMU 180555Z AUTO 00000KT 10SM CLR 20/16 A3007 RMK AO2 =
2018-06-18 01:35 METAR KMMU 180535Z AUTO 00000KT 10SM CLR 20/16 A3007 RMK AO2 =
2018-06-18 01:15 METAR KMMU 180515Z AUTO 00000KT 10SM CLR 21/16 A3007 RMK AO2 =
2018-06-18 00:55 METAR KMMU 180455Z AUTO 00000KT 10SM CLR 21/16 A3007 RMK AO2 =
2018-06-18 00:35 METAR KMMU 180435Z AUTO 17003KT 10SM CLR 21/16 A3007 RMK AO2 =
2018-06-18 00:15 METAR KMMU 180415Z AUTO 18003KT 10SM CLR 22/16 A3007 RMK AO2 =
2018-06-17 23:55 METAR KMMU 180355Z AUTO 20003KT 10SM CLR 22/16 A3007 RMK AO2 =
2018-06-17 23:35 METAR KMMU 180335Z AUTO 19003KT 10SM CLR 22/16 A3007 RMK AO2 =
2018-06-17 23:15 METAR KMMU 180315Z AUTO 19003KT 10SM CLR 22/16 A3006 RMK AO2 =
2018-06-17 22:55 METAR KMMU 180255Z AUTO 21003KT 10SM CLR 22/16 A3006 RMK AO2 =
2018-06-17 22:35 METAR KMMU 180235Z AUTO 20003KT 10SM CLR 22/16 A3006 RMK AO2 =
2018-06-17 22:15 METAR KMMU 180215Z AUTO 00000KT 10SM CLR 20/16 A3006 RMK AO2 =
2018-06-17 21:46 METAR KMMU 180146Z COR 21003KT 10SM SCT120 25/16 A3006 =
2018-06-17 21:45 METAR KMMU 180145Z 21003KT 11SM SCT120 25/16 A3006 =

Support USWX by starting your Amazon purchase here.